Time;durP1;ratioP1;P1;durP2;ratioP2;P2;SDS_P1;SDS_P2;PMS_P1;PMS_P2;Temp;Humidity;BMP_temperature;BMP_pressure;BME280_temperature;BME280_humidity;BME280_pressure;Samples;Min_cycle;Max_cycle;Signal;HPM_P1;HPM_P2
2023/07/26 00:00:27;;;;;;;1.37;1.13;;;;;;;;;;5120081;28;20438;-59
2023/07/26 00:02:54;;;;;;;6.97;1.57;;;17.50;99.90;;;;;;5119043;28;20471;-61
2023/07/26 00:05:20;;;;;;;1.77;1.30;;;17.60;99.90;;;;;;5118746;28;20428;-59
2023/07/26 00:07:49;;;;;;;3.80;1.20;;;17.20;99.90;;;;;;5118909;28;20522;-58
2023/07/26 00:10:18;;;;;;;2.07;1.13;;;17.20;99.90;;;;;;5119152;28;20481;-64
2023/07/26 00:12:46;;;;;;;2.03;1.40;;;17.20;99.90;;;;;;5119099;28;20479;-60
2023/07/26 00:15:12;;;;;;;2.93;1.37;;;17.20;99.90;;;;;;5118488;28;20462;-60
2023/07/26 00:17:39;;;;;;;2.03;1.50;;;17.20;99.90;;;;;;5119428;28;20455;-58
2023/07/26 00:20:09;;;;;;;3.70;1.70;;;17.20;99.90;;;;;;5119265;28;20484;-61
2023/07/26 00:22:35;;;;;;;4.40;1.80;;;17.10;99.90;;;;;;5115417;28;20457;-60
2023/07/26 00:25:05;;;;;;;4.80;1.47;;;16.80;99.90;;;;;;5119394;28;20430;-62
2023/07/26 00:27:34;;;;;;;3.00;1.43;;;17.30;99.90;;;;;;5118298;28;20441;-57
2023/07/26 00:30:04;;;;;;;8.03;1.60;;;17.50;99.90;;;;;;5118059;28;20524;-58
2023/07/26 00:32:31;;;;;;;3.43;1.50;;;17.40;99.90;;;;;;5118845;28;20512;-57
2023/07/26 00:34:58;;;;;;;2.60;1.83;;;16.70;99.90;;;;;;5119903;28;20478;-61
2023/07/26 00:37:25;;;;;;;1.87;1.37;;;16.70;99.90;;;;;;5119496;28;20434;-61
2023/07/26 00:39:51;;;;;;;2.70;1.47;;;16.70;99.90;;;;;;5119289;28;20425;-57
2023/07/26 00:42:21;;;;;;;2.80;2.17;;;16.60;99.90;;;;;;5119369;28;20444;-60
2023/07/26 00:44:50;;;;;;;1.60;1.23;;;16.60;99.90;;;;;;5118549;28;20466;-60
2023/07/26 00:47:18;;;;;;;9.73;1.63;;;16.60;99.90;;;;;;5119217;28;20430;-58
2023/07/26 00:49:46;;;;;;;3.20;1.40;;;16.30;99.90;;;;;;5118702;28;20508;-60
2023/07/26 00:52:14;;;;;;;2.43;1.53;;;16.30;99.90;;;;;;5118883;28;20443;-57
2023/07/26 00:54:41;;;;;;;11.00;2.30;;;16.40;99.90;;;;;;5118782;28;20442;-57
2023/07/26 00:57:08;;;;;;;2.13;1.40;;;16.40;99.90;;;;;;5099562;28;20552;-64
2023/07/26 00:59:35;;;;;;;3.13;1.10;;;16.20;99.90;;;;;;5101149;28;20484;-63
2023/07/26 01:02:04;;;;;;;5.10;1.70;;;16.20;99.90;;;;;;5115816;28;20446;-64
2023/07/26 01:04:31;;;;;;;5.93;1.13;;;16.10;99.90;;;;;;5118449;28;20446;-59
2023/07/26 01:07:07;;;;;;;3.90;1.33;;;16.80;99.90;;;;;;5118480;28;20441;-58
2023/07/26 01:09:45;;;;;;;5.07;1.03;;;16.50;99.90;;;;;;5117881;28;20492;-59
2023/07/26 01:12:18;;;;;;;3.70;1.40;;;16.20;99.90;;;;;;5118065;28;20452;-60
2023/07/26 01:14:53;;;;;;;3.33;1.73;;;16.10;99.90;;;;;;5118282;28;20458;-57
2023/07/26 01:17:21;;;;;;;2.13;1.17;;;16.20;99.90;;;;;;5117954;28;20421;-61
2023/07/26 01:19:50;;;;;;;3.33;1.20;;;16.00;99.90;;;;;;5118262;28;20429;-61
2023/07/26 01:22:18;;;;;;;6.50;1.57;;;16.00;99.90;;;;;;5118482;28;20466;-55
2023/07/26 01:24:45;;;;;;;3.60;1.30;;;16.10;99.90;;;;;;5118362;28;20453;-61
2023/07/26 01:27:12;;;;;;;8.23;1.70;;;;;;;;;;5118755;28;20461;-60
2023/07/26 01:29:39;;;;;;;2.23;1.70;;;15.90;99.90;;;;;;5118958;28;20476;-59
2023/07/26 01:32:08;;;;;;;3.47;1.43;;;16.40;99.90;;;;;;5119245;28;20464;-56
2023/07/26 01:34:36;;;;;;;1.40;1.17;;;15.90;99.90;;;;;;5118798;28;20472;-63
2023/07/26 01:37:03;;;;;;;2.80;1.50;;;15.90;99.90;;;;;;5118393;28;20449;-57
2023/07/26 01:39:31;;;;;;;9.03;1.33;;;15.80;99.90;;;;;;5117347;28;20472;-59
2023/07/26 01:41:59;;;;;;;1.80;1.30;;;15.80;99.90;;;;;;5117089;28;20445;-59
2023/07/26 01:44:35;;;;;;;1.60;1.30;;;15.60;99.90;;;;;;5115980;28;20433;-61
2023/07/26 01:47:04;;;;;;;2.23;1.60;;;15.60;99.90;;;;;;5116175;28;20433;-56
2023/07/26 01:49:32;;;;;;;2.33;1.10;;;15.50;99.90;;;;;;5116534;28;20426;-54
2023/07/26 01:52:00;;;;;;;4.50;1.20;;;15.60;99.90;;;;;;5116885;28;20457;-61
2023/07/26 01:54:27;;;;;;;2.40;1.60;;;15.50;99.90;;;;;;5116212;28;20455;-62
2023/07/26 01:56:59;;;;;;;3.27;2.27;;;15.50;99.90;;;;;;5116690;28;20525;-59
2023/07/26 01:59:26;;;;;;;4.47;1.63;;;;;;;;;;5116274;28;20437;-60
2023/07/26 02:01:53;;;;;;;5.97;1.93;;;15.40;99.90;;;;;;5117152;28;20449;-61
2023/07/26 02:04:20;;;;;;;4.77;1.30;;;;;;;;;;5116523;28;20476;-67
2023/07/26 02:06:47;;;;;;;2.97;1.63;;;15.30;99.90;;;;;;5117217;28;20535;-57
2023/07/26 02:09:14;;;;;;;2.00;1.40;;;15.50;99.90;;;;;;5117028;28;20471;-60
2023/07/26 02:11:41;;;;;;;3.47;1.27;;;15.40;99.90;;;;;;5117028;28;20465;-58
2023/07/26 02:14:10;;;;;;;10.20;1.93;;;15.40;99.90;;;;;;5116154;28;20457;-61
2023/07/26 02:16:37;;;;;;;2.63;1.63;;;15.40;99.90;;;;;;5117145;28;20461;-57
2023/07/26 02:19:04;;;;;;;1.83;1.27;;;15.10;99.90;;;;;;5117315;28;20464;-57
2023/07/26 02:21:31;;;;;;;3.87;1.63;;;15.10;99.90;;;;;;5115819;28;20459;-59
2023/07/26 02:24:01;;;;;;;7.90;1.80;;;15.30;99.90;;;;;;5117608;28;20437;-54
2023/07/26 02:26:28;;;;;;;4.50;2.03;;;;;;;;;;5116100;28;20457;-62
2023/07/26 02:28:56;;;;;;;2.90;1.60;;;15.30;99.90;;;;;;5116244;28;20491;-61
2023/07/26 02:31:26;;;;;;;6.63;1.43;;;15.20;99.90;;;;;;5116387;28;20477;-61
2023/07/26 02:33:58;;;;;;;3.53;1.20;;;15.40;99.90;;;;;;5115833;28;20461;-62
2023/07/26 02:36:25;;;;;;;5.73;1.93;;;15.20;99.90;;;;;;5115076;28;20451;-59
2023/07/26 02:38:52;;;;;;;1.63;1.53;;;15.30;99.90;;;;;;5115805;28;20452;-59
2023/07/26 02:41:20;;;;;;;8.80;2.00;;;;;;;;;;5115469;28;20441;-54
2023/07/26 02:43:46;;;;;;;3.67;1.70;;;15.10;99.90;;;;;;5116870;28;20438;-58
2023/07/26 02:46:14;;;;;;;4.17;2.00;;;;;;;;;;5115971;28;20437;-60
2023/07/26 02:48:42;;;;;;;4.07;1.23;;;15.00;99.90;;;;;;5116818;28;20405;-61
2023/07/26 02:51:09;;;;;;;4.03;1.90;;;15.10;99.90;;;;;;5117087;28;20473;-57
2023/07/26 02:53:38;;;;;;;5.37;1.73;;;15.20;99.90;;;;;;5116192;28;20453;-61
2023/07/26 02:56:05;;;;;;;7.63;1.97;;;15.20;99.90;;;;;;5101603;28;20958;-60
2023/07/26 02:58:32;;;;;;;2.23;1.60;;;;;;;;;;5117104;28;20458;-60
2023/07/26 03:01:01;;;;;;;3.80;1.50;;;14.90;99.90;;;;;;5117222;28;20432;-57
2023/07/26 03:03:28;;;;;;;3.53;1.93;;;15.20;99.90;;;;;;5113215;28;20514;-63
2023/07/26 03:05:57;;;;;;;2.90;2.17;;;15.60;99.90;;;;;;5095858;28;20512;-63
2023/07/26 03:08:24;;;;;;;3.37;2.37;;;15.20;99.90;;;;;;5115901;28;20441;-61
2023/07/26 03:10:52;;;;;;;3.20;1.80;;;14.90;99.90;;;;;;5116380;28;20469;-54
2023/07/26 03:13:18;;;;;;;6.03;1.50;;;14.90;99.90;;;;;;5116779;28;20450;-50
2023/07/26 03:15:46;;;;;;;3.53;1.70;;;15.00;99.90;;;;;;5117117;28;20461;-59
2023/07/26 03:18:13;;;;;;;2.50;1.50;;;15.00;99.90;;;;;;5115692;28;20461;-56
2023/07/26 03:20:40;;;;;;;2.07;1.87;;;14.90;99.90;;;;;;5116128;28;20469;-61
2023/07/26 03:23:08;;;;;;;1.57;1.40;;;14.80;99.90;;;;;;5115461;28;20469;-62
2023/07/26 03:25:35;;;;;;;2.97;2.03;;;14.90;99.90;;;;;;5116494;28;20418;-60
2023/07/26 03:28:03;;;;;;;10.10;3.50;;;14.80;99.90;;;;;;5114927;28;20475;-64
2023/07/26 03:30:30;;;;;;;4.03;1.90;;;14.60;99.90;;;;;;5116213;28;20483;-61
2023/07/26 03:32:57;;;;;;;2.00;1.70;;;14.90;99.90;;;;;;5115708;28;20441;-61
2023/07/26 03:35:24;;;;;;;1.57;1.47;;;14.60;99.90;;;;;;5115606;28;20465;-62
2023/07/26 03:37:51;;;;;;;2.53;1.40;;;14.50;99.90;;;;;;5115738;28;20448;-59
2023/07/26 03:40:19;;;;;;;2.30;1.93;;;14.60;99.90;;;;;;5116411;28;20473;-57
2023/07/26 03:42:46;;;;;;;2.23;1.90;;;14.90;99.90;;;;;;5115150;28;20441;-62
2023/07/26 03:45:13;;;;;;;2.03;1.30;;;14.40;99.90;;;;;;5115356;28;20433;-61
2023/07/26 03:47:40;;;;;;;4.30;2.17;;;14.80;99.90;;;;;;5115788;28;20493;-57
2023/07/26 03:50:08;;;;;;;5.27;1.90;;;14.70;99.90;;;;;;5119433;28;20456;-51
2023/07/26 03:52:37;;;;;;;13.43;1.90;;;14.60;99.90;;;;;;5118768;28;20463;-63
2023/07/26 03:55:05;;;;;;;3.30;2.13;;;;;;;;;;5119736;28;20472;-56
2023/07/26 03:57:33;;;;;;;6.67;1.63;;;14.80;99.90;;;;;;5118988;28;20453;-59
2023/07/26 04:00:02;;;;;;;2.53;1.60;;;14.60;99.90;;;;;;5119812;28;20940;-52
2023/07/26 04:02:29;;;;;;;3.37;2.27;;;14.60;99.90;;;;;;5119812;28;20481;-59
2023/07/26 04:04:56;;;;;;;2.87;1.80;;;14.60;99.90;;;;;;5119528;28;20449;-56
2023/07/26 04:07:25;;;;;;;4.37;2.00;;;14.80;99.90;;;;;;5119834;28;20437;-54
2023/07/26 04:09:52;;;;;;;6.03;1.57;;;14.60;99.90;;;;;;5120535;28;20477;-56
2023/07/26 04:12:19;;;;;;;3.10;1.70;;;15.20;99.90;;;;;;5120389;28;20477;-60
2023/07/26 04:14:47;;;;;;;4.80;2.10;;;14.70;99.90;;;;;;5120557;28;20421;-59
2023/07/26 04:17:14;;;;;;;2.70;1.97;;;14.50;99.90;;;;;;5119996;28;20437;-61
2023/07/26 04:19:41;;;;;;;5.20;2.33;;;14.70;99.90;;;;;;5120235;28;20433;-56
2023/07/26 04:22:08;;;;;;;2.23;1.50;;;;;;;;;;5120250;28;20441;-58
2023/07/26 04:24:35;;;;;;;2.43;2.20;;;14.60;99.90;;;;;;5119707;28;20469;-60
2023/07/26 04:27:02;;;;;;;4.00;1.57;;;14.70;99.90;;;;;;5118777;28;20448;-60
2023/07/26 04:29:29;;;;;;;3.87;1.67;;;14.50;99.90;;;;;;5118227;28;20453;-59
2023/07/26 04:31:57;;;;;;;5.53;1.93;;;14.90;99.90;;;;;;5118465;28;20469;-58
2023/07/26 04:34:24;;;;;;;1.80;1.47;;;14.70;99.90;;;;;;5118311;28;20441;-60
2023/07/26 04:36:51;;;;;;;3.10;2.03;;;15.00;99.90;;;;;;5117989;28;20489;-58
2023/07/26 04:39:18;;;;;;;2.43;1.90;;;14.70;99.90;;;;;;5118513;28;20418;-58
2023/07/26 04:41:51;;;;;;;4.40;2.20;;;14.60;99.90;;;;;;5117973;28;20441;-56
2023/07/26 04:44:20;;;;;;;5.23;1.87;;;14.10;99.90;;;;;;5117595;28;20422;-58
2023/07/26 04:46:48;;;;;;;3.73;1.80;;;14.70;99.90;;;;;;5119857;28;20433;-59
2023/07/26 04:49:20;;;;;;;2.77;1.83;;;14.90;99.90;;;;;;5119480;28;20465;-60
2023/07/26 04:51:46;;;;;;;5.13;1.90;;;14.60;99.90;;;;;;5119391;28;21019;-58
2023/07/26 04:54:13;;;;;;;6.37;2.40;;;14.80;99.90;;;;;;5119403;28;20438;-53
2023/07/26 04:56:40;;;;;;;3.30;2.20;;;14.90;99.90;;;;;;5119254;28;20437;-58
2023/07/26 04:59:07;;;;;;;6.00;2.20;;;15.10;99.90;;;;;;5118719;28;20449;-51
2023/07/26 05:01:35;;;;;;;5.13;1.67;;;15.00;99.90;;;;;;5118931;28;20472;-55
2023/07/26 05:04:05;;;;;;;3.43;1.57;;;15.20;99.90;;;;;;5119239;28;20417;-53
2023/07/26 05:06:34;;;;;;;2.23;1.53;;;15.00;99.90;;;;;;5119257;28;20417;-60
2023/07/26 05:09:02;;;;;;;6.63;1.63;;;15.00;99.90;;;;;;5119241;28;20429;-53
2023/07/26 05:11:29;;;;;;;7.63;2.53;;;;;;;;;;5118895;28;20476;-55
2023/07/26 05:13:56;;;;;;;2.40;1.80;;;14.90;99.90;;;;;;5119035;28;20446;-60
2023/07/26 05:16:23;;;;;;;6.57;2.17;;;15.00;99.90;;;;;;5118911;28;20442;-59
2023/07/26 05:18:49;;;;;;;2.03;1.83;;;14.80;99.90;;;;;;5119115;28;20452;-57
2023/07/26 05:21:16;;;;;;;8.53;1.73;;;14.90;99.90;;;;;;5118951;28;20425;-53
2023/07/26 05:23:45;;;;;;;2.37;1.90;;;14.90;99.90;;;;;;5118939;28;20433;-52
2023/07/26 05:26:11;;;;;;;7.37;1.93;;;14.70;99.90;;;;;;5119142;28;20479;-62
2023/07/26 05:28:38;;;;;;;3.00;2.03;;;15.30;99.90;;;;;;5118938;28;20436;-59
2023/07/26 05:31:05;;;;;;;2.90;2.20;;;15.50;99.90;;;;;;5118623;28;20508;-58
2023/07/26 05:33:32;;;;;;;2.90;2.17;;;14.50;99.90;;;;;;5118614;28;20422;-60
2023/07/26 05:35:59;;;;;;;4.43;1.80;;;14.80;99.90;;;;;;5118452;28;20422;-56
2023/07/26 05:38:26;;;;;;;10.20;1.80;;;15.10;99.90;;;;;;5118381;28;20465;-59
2023/07/26 05:41:01;;;;;;;4.17;1.90;;;15.20;99.90;;;;;;5118250;28;20425;-60
2023/07/26 05:43:28;;;;;;;5.13;2.00;;;;;;;;;;5118937;28;20402;-55
2023/07/26 05:45:55;;;;;;;4.60;2.40;;;;;;;;;;5116744;28;20448;-59
2023/07/26 05:48:22;;;;;;;3.33;1.73;;;15.20;99.90;;;;;;5116647;28;20441;-55
2023/07/26 05:50:49;;;;;;;2.73;1.50;;;15.40;99.90;;;;;;5117009;28;20469;-53
2023/07/26 05:53:16;;;;;;;7.30;1.70;;;16.20;99.90;;;;;;5117380;28;20434;-59
2023/07/26 05:55:43;;;;;;;4.30;1.63;;;;;;;;;;5116736;28;20441;-61
2023/07/26 05:58:12;;;;;;;5.10;3.37;;;15.50;99.90;;;;;;5116180;28;20426;-59
2023/07/26 06:00:38;;;;;;;4.40;1.97;;;15.50;99.90;;;;;;5116689;28;20456;-62
2023/07/26 06:03:06;;;;;;;5.60;1.63;;;;;;;;;;5116078;28;20445;-58
2023/07/26 06:08:04;;;;;;;2.57;1.80;;;;;;;;;;5060822;28;20540;-60
2023/07/26 06:10:31;;;;;;;4.50;1.63;;;;;;;;;;5063604;28;20704;-61
2023/07/26 06:13:01;;;;;;;7.30;1.80;;;16.00;99.90;;;;;;5054325;28;20570;-62
2023/07/26 06:15:29;;;;;;;6.20;1.97;;;16.00;99.90;;;;;;5063516;28;20471;-60
2023/07/26 06:17:56;;;;;;;5.20;2.07;;;;;;;;;;5055212;28;20527;-62
2023/07/26 06:20:23;;;;;;;9.43;2.03;;;16.40;99.90;;;;;;5057136;28;20490;-63
2023/07/26 06:22:50;;;;;;;2.87;1.53;;;16.40;99.90;;;;;;5054931;28;20538;-64
2023/07/26 06:25:16;;;;;;;5.23;2.13;;;16.20;99.90;;;;;;5065151;28;20475;-59
2023/07/26 06:27:43;;;;;;;4.97;2.10;;;16.60;99.90;;;;;;5072766;28;20419;-59
2023/07/26 06:30:12;;;;;;;6.30;2.90;;;16.40;99.90;;;;;;5074784;28;20439;-59
2023/07/26 06:32:40;;;;;;;2.67;2.13;;;16.50;99.90;;;;;;5073781;28;20498;-58
2023/07/26 06:35:08;;;;;;;2.03;1.60;;;16.70;99.90;;;;;;5065566;28;20460;-53
2023/07/26 06:37:35;;;;;;;3.07;1.87;;;16.40;99.90;;;;;;5056152;28;20810;-61
2023/07/26 06:40:03;;;;;;;3.63;1.87;;;16.60;99.90;;;;;;5065344;28;20462;-58
2023/07/26 06:42:30;;;;;;;3.00;1.47;;;16.60;99.90;;;;;;5074692;28;20516;-57
2023/07/26 06:44:56;;;;;;;4.70;1.70;;;16.80;99.90;;;;;;5074954;28;20467;-54
2023/07/26 06:47:24;;;;;;;5.83;2.17;;;;;;;;;;5073712;28;20494;-60
2023/07/26 06:49:52;;;;;;;8.73;2.63;;;16.80;99.90;;;;;;5074771;28;20463;-59
2023/07/26 06:52:19;;;;;;;2.10;1.20;;;17.00;99.90;;;;;;5057964;28;20462;-60
2023/07/26 06:54:46;;;;;;;4.10;1.97;;;17.00;99.90;;;;;;5073302;28;20467;-61
2023/07/26 06:57:13;;;;;;;4.37;1.90;;;16.90;99.90;;;;;;5059247;28;20452;-52
2023/07/26 06:59:40;;;;;;;1.97;1.60;;;;;;;;;;5068952;28;20458;-58
2023/07/26 07:02:07;;;;;;;1.40;1.10;;;17.10;99.90;;;;;;5074852;28;20436;-59
2023/07/26 07:04:34;;;;;;;6.33;1.47;;;17.10;99.90;;;;;;5074632;28;20431;-56
2023/07/26 07:07:02;;;;;;;2.07;1.60;;;17.20;99.90;;;;;;5072644;28;20463;-59
2023/07/26 07:09:29;;;;;;;2.20;1.37;;;17.40;99.90;;;;;;5074212;28;20459;-58
2023/07/26 07:11:56;;;;;;;2.07;1.47;;;17.60;99.90;;;;;;5073773;28;20515;-54
2023/07/26 07:14:23;;;;;;;3.50;1.60;;;17.70;99.90;;;;;;5073698;28;20455;-58
2023/07/26 07:16:51;;;;;;;6.40;1.40;;;17.90;99.90;;;;;;5073190;28;20470;-56
2023/07/26 07:19:18;;;;;;;1.87;1.67;;;18.10;99.90;;;;;;5055793;28;20530;-63
2023/07/26 07:21:45;;;;;;;2.23;1.60;;;18.30;99.90;;;;;;5066324;28;20451;-60
2023/07/26 07:24:14;;;;;;;1.40;1.00;;;18.40;99.90;;;;;;5076723;28;20471;-57
2023/07/26 07:26:40;;;;;;;2.23;1.57;;;18.60;99.90;;;;;;5077608;28;20514;-55
2023/07/26 07:29:10;;;;;;;4.17;1.10;;;18.70;99.90;;;;;;5077482;28;20473;-58
2023/07/26 07:31:37;;;;;;;3.83;1.50;;;19.10;99.90;;;;;;5076546;28;20505;-61
2023/07/26 07:34:04;;;;;;;1.67;1.00;;;19.40;99.90;;;;;;5076329;28;20455;-61
2023/07/26 07:36:34;;;;;;;5.17;1.70;;;20.00;99.90;;;;;;5078259;28;20479;-59
2023/07/26 07:39:00;;;;;;;3.47;1.70;;;21.10;99.90;;;;;;5060750;28;20514;-58
2023/07/26 07:41:29;;;;;;;1.80;1.37;;;22.00;99.90;;;;;;5057618;28;20458;-61
2023/07/26 07:43:56;;;;;;;2.93;1.60;;;;;;;;;;5073344;28;20495;-58
2023/07/26 07:46:25;;;;;;;2.80;1.77;;;22.60;99.90;;;;;;5073941;28;20446;-60
2023/07/26 07:48:52;;;;;;;2.43;2.13;;;;;;;;;;5073711;28;20487;-61
2023/07/26 07:51:19;;;;;;;4.30;1.67;;;22.40;99.90;;;;;;5058057;28;20524;-61
2023/07/26 07:53:48;;;;;;;2.67;1.53;;;22.50;99.90;;;;;;5073728;28;20481;-63
2023/07/26 07:56:17;;;;;;;2.53;1.40;;;22.00;99.90;;;;;;5076450;28;20428;-61
2023/07/26 07:58:46;;;;;;;1.63;1.50;;;22.80;99.90;;;;;;5078126;28;20451;-58
2023/07/26 08:01:13;;;;;;;2.20;1.50;;;22.50;99.90;;;;;;5077817;28;20582;-58
2023/07/26 08:03:40;;;;;;;2.50;1.80;;;;;;;;;;5077587;28;20435;-58
2023/07/26 08:06:07;;;;;;;7.07;1.50;;;;;;;;;;5076931;28;20466;-57
2023/07/26 08:08:34;;;;;;;2.10;1.27;;;;;;;;;;5071874;28;20746;-64
2023/07/26 08:11:03;;;;;;;3.50;1.70;;;22.10;99.90;;;;;;5057490;28;20562;-62
2023/07/26 08:13:30;;;;;;;1.43;1.10;;;21.70;99.90;;;;;;5056820;28;20489;-62
2023/07/26 08:15:59;;;;;;;1.77;1.37;;;21.70;99.90;;;;;;5063285;28;20555;-63
2023/07/26 08:18:26;;;;;;;2.60;1.70;;;;;;;;;;5063029;28;20530;-62
2023/07/26 08:20:53;;;;;;;1.73;1.50;;;22.40;99.90;;;;;;5068290;28;20515;-61
2023/07/26 08:23:20;;;;;;;1.67;1.20;;;22.30;99.90;;;;;;5071322;28;20471;-62
2023/07/26 08:25:47;;;;;;;2.60;1.30;;;22.70;99.90;;;;;;5070889;28;20451;-61
2023/07/26 08:28:14;;;;;;;1.40;1.00;;;22.40;99.90;;;;;;5071567;28;20499;-61
2023/07/26 08:30:41;;;;;;;1.70;1.50;;;22.80;99.90;;;;;;5063355;28;20501;-61
2023/07/26 08:33:09;;;;;;;1.33;1.23;;;23.40;97.80;;;;;;5070913;28;20486;-60
2023/07/26 08:35:36;;;;;;;1.80;1.20;;;23.70;99.90;;;;;;5070260;28;20459;-56
2023/07/26 08:38:03;;;;;;;2.37;1.40;;;23.70;99.90;;;;;;5070826;28;20450;-62
2023/07/26 08:40:30;;;;;;;1.60;1.30;;;23.80;99.90;;;;;;5059281;28;20459;-61
2023/07/26 08:42:57;;;;;;;2.10;1.37;;;;;;;;;;5063522;28;20443;-60
2023/07/26 08:45:27;;;;;;;2.87;2.20;;;24.30;99.90;;;;;;5073972;28;20467;-63
2023/07/26 08:47:55;;;;;;;1.90;1.30;;;24.40;99.90;;;;;;5056635;28;20527;-62
2023/07/26 08:50:24;;;;;;;1.63;1.33;;;24.40;99.90;;;;;;5068645;28;20474;-60
2023/07/26 08:52:51;;;;;;;2.73;1.63;;;24.40;99.90;;;;;;5070692;28;20799;-62
2023/07/26 08:55:18;;;;;;;3.37;1.40;;;;;;;;;;5071041;28;20443;-57
2023/07/26 08:57:45;;;;;;;2.63;1.27;;;23.40;99.90;;;;;;5058493;28;20778;-63
2023/07/26 09:00:14;;;;;;;2.43;2.17;;;23.00;99.90;;;;;;5060477;28;20475;-63
2023/07/26 09:02:45;;;;;;;2.30;1.67;;;23.10;99.90;;;;;;5059289;28;20506;-60
2023/07/26 09:05:12;;;;;;;2.27;1.57;;;23.20;97.60;;;;;;5068327;28;20959;-60
2023/07/26 09:07:41;;;;;;;1.63;1.40;;;23.40;99.90;;;;;;5067583;28;20525;-62
2023/07/26 09:10:08;;;;;;;8.13;4.40;;;23.90;99.90;;;;;;5066278;28;20523;-62
2023/07/26 09:12:35;;;;;;;2.33;1.67;;;;;;;;;;5069046;28;20491;-58
2023/07/26 09:15:06;;;;;;;1.90;1.40;;;24.30;93.40;;;;;;5070750;28;20447;-59
2023/07/26 09:17:38;;;;;;;2.33;1.20;;;24.30;93.70;;;;;;5075784;28;20440;-61
2023/07/26 09:20:06;;;;;;;2.47;1.27;;;24.60;99.90;;;;;;5076267;28;20483;-55
2023/07/26 09:22:33;;;;;;;2.57;1.60;;;24.90;99.90;;;;;;5071690;28;20463;-63
2023/07/26 09:25:02;;;;;;;1.57;1.40;;;24.30;99.90;;;;;;5059876;28;20451;-64
2023/07/26 09:27:29;;;;;;;2.10;1.20;;;24.90;99.90;;;;;;5063592;28;20511;-63
2023/07/26 09:29:57;;;;;;;1.90;1.50;;;24.90;91.80;;;;;;5075473;28;20493;-60
2023/07/26 09:32:29;;;;;;;2.50;1.70;;;25.50;85.30;;;;;;5075359;28;20513;-55
2023/07/26 09:34:59;;;;;;;1.33;0.97;;;26.50;95.50;;;;;;5075306;28;20874;-62
2023/07/26 09:37:26;;;;;;;1.80;1.40;;;;;;;;;;5074802;28;20479;-59
2023/07/26 09:39:53;;;;;;;1.90;1.47;;;24.70;99.90;;;;;;5072395;28;20470;-61
2023/07/26 09:42:22;;;;;;;1.40;1.20;;;23.50;99.90;;;;;;5055566;28;20570;-62
2023/07/26 09:44:49;;;;;;;5.27;1.43;;;;;;;;;;5070588;28;20419;-61
2023/07/26 09:47:22;;;;;;;1.60;1.30;;;23.10;99.90;;;;;;5075310;28;20478;-61
2023/07/26 09:49:52;;;;;;;2.67;1.60;;;23.50;99.90;;;;;;5075859;28;20424;-57
2023/07/26 09:52:21;;;;;;;3.60;1.37;;;22.90;99.90;;;;;;5075007;28;20546;-62
2023/07/26 09:54:49;;;;;;;1.80;1.47;;;22.90;90.20;;;;;;5075425;28;20447;-60
2023/07/26 09:57:18;;;;;;;3.77;2.10;;;24.40;99.90;;;;;;5056766;28;20495;-61
2023/07/26 09:59:48;;;;;;;2.27;1.50;;;24.30;90.70;;;;;;5068311;28;20435;-62
2023/07/26 10:02:16;;;;;;;2.40;1.50;;;25.10;87.90;;;;;;5063557;28;20521;-65
2023/07/26 10:04:50;;;;;;;5.17;2.47;;;24.40;99.50;;;;;;5057285;28;20451;-58
2023/07/26 10:07:19;;;;;;;6.17;1.93;;;24.20;99.90;;;;;;5068276;28;20504;-61
2023/07/26 10:09:49;;;;;;;2.07;1.50;;;23.50;99.90;;;;;;5068714;28;20499;-59
2023/07/26 10:12:16;;;;;;;5.00;1.57;;;24.20;99.90;;;;;;5071717;28;20479;-63
2023/07/26 10:14:43;;;;;;;2.60;1.53;;;24.60;99.90;;;;;;5070140;28;20467;-62
2023/07/26 10:17:14;;;;;;;2.10;1.50;;;24.70;82.90;;;;;;5062289;28;20478;-59
2023/07/26 10:19:44;;;;;;;2.17;1.60;;;24.00;99.90;;;;;;5064698;28;20475;-64
2023/07/26 10:22:12;;;;;;;5.30;1.50;;;23.40;99.90;;;;;;5059112;28;20513;-62
2023/07/26 10:24:42;;;;;;;3.07;1.23;;;22.90;99.90;;;;;;5056067;28;20959;-62
2023/07/26 10:27:09;;;;;;;2.53;1.73;;;23.00;99.90;;;;;;5062257;28;20458;-56
2023/07/26 10:29:37;;;;;;;3.43;1.60;;;23.30;89.60;;;;;;5070206;28;20532;-61
2023/07/26 10:32:06;;;;;;;3.70;1.40;;;24.40;99.90;;;;;;5067393;28;20778;-65
2023/07/26 10:34:35;;;;;;;2.77;1.40;;;24.50;84.80;;;;;;5055200;28;20443;-65
2023/07/26 10:37:14;;;;;;;1.53;1.40;;;25.00;80.60;;;;;;5060501;28;20892;-61
2023/07/26 10:39:42;;;;;;;2.30;1.50;;;;;;;;;;5068267;28;20511;-61
2023/07/26 10:42:22;;;;;;;2.07;1.50;;;24.50;99.40;;;;;;5068248;28;20472;-61
2023/07/26 10:44:49;;;;;;;2.40;1.37;;;24.20;97.60;;;;;;5057968;28;20420;-63
2023/07/26 10:47:16;;;;;;;3.10;1.87;;;;;;;;;;5059835;28;20482;-62
2023/07/26 10:49:47;;;;;;;2.47;1.83;;;23.60;85.20;;;;;;5068095;28;20474;-62
2023/07/26 10:52:15;;;;;;;2.90;2.07;;;;;;;;;;5071321;28;20422;-62
2023/07/26 10:54:43;;;;;;;3.10;1.90;;;23.60;99.90;;;;;;5059674;28;20554;-61
2023/07/26 10:57:18;;;;;;;5.70;1.90;;;22.90;99.90;;;;;;5059229;28;20487;-63
2023/07/26 11:00:09;;;;;;;2.00;1.50;;;22.80;99.90;;;;;;5070184;28;20466;-63
2023/07/26 11:02:37;;;;;;;1.70;1.53;;;22.10;99.90;;;;;;5067238;28;20477;-64
2023/07/26 11:05:10;;;;;;;1.50;1.30;;;22.20;99.90;;;;;;5071865;28;20534;-59
2023/07/26 11:08:04;;;;;;;2.20;1.70;;;22.00;99.90;;;;;;5071627;28;20458;-64
2023/07/26 11:10:32;;;;;;;1.77;1.43;;;21.70;99.90;;;;;;5025898;28;20479;-60
2023/07/26 11:13:11;;;;;;;4.87;1.33;;;21.50;99.90;;;;;;5073678;28;20478;-62
2023/07/26 11:15:40;;;;;;;2.40;1.60;;;21.70;99.90;;;;;;5073598;28;20443;-60
2023/07/26 11:18:07;;;;;;;3.80;1.97;;;22.00;99.90;;;;;;5067626;28;20744;-64
2023/07/26 11:20:38;;;;;;;2.57;1.67;;;22.30;99.90;;;;;;5069145;28;20454;-64
2023/07/26 11:23:16;;;;;;;2.47;1.50;;;22.40;94.80;;;;;;5062840;28;20546;-63
2023/07/26 11:25:43;;;;;;;2.70;1.53;;;22.40;96.20;;;;;;5071250;28;20806;-60
2023/07/26 11:28:10;;;;;;;1.70;1.50;;;22.30;93.00;;;;;;5078684;28;20466;-59
2023/07/26 11:30:38;;;;;;;2.33;1.43;;;22.70;99.90;;;;;;5077955;28;20451;-59
2023/07/26 11:33:05;;;;;;;5.03;3.00;;;22.70;93.80;;;;;;5077708;28;20506;-61
2023/07/26 11:35:41;;;;;;;1.90;1.63;;;22.50;99.90;;;;;;5070335;28;20725;-61
2023/07/26 11:38:09;;;;;;;9.27;1.87;;;21.90;99.90;;;;;;5060420;28;20476;-64
2023/07/26 11:40:40;;;;;;;3.47;1.90;;;20.30;99.90;;;;;;5068084;28;20435;-61
2023/07/26 11:43:08;;;;;;;3.20;1.73;;;19.70;99.90;;;;;;5078442;28;20443;-59
2023/07/26 11:45:37;;;;;;;10.13;2.30;;;18.30;99.90;;;;;;5069662;28;20454;-51
2023/07/26 11:48:04;;;;;;;3.60;1.80;;;17.80;99.90;;;;;;5079710;28;20440;-57
2023/07/26 11:50:31;;;;;;;3.60;2.07;;;17.60;99.90;;;;;;5060465;28;20528;-58
2023/07/26 11:53:07;;;;;;;2.97;2.03;;;17.40;99.90;;;;;;5075893;28;20510;-60
2023/07/26 11:55:34;;;;;;;4.77;2.17;;;;;;;;;;5060826;28;20549;-62
2023/07/26 11:58:03;;;;;;;2.30;1.80;;;18.10;99.90;;;;;;5063562;28;20510;-63
2023/07/26 12:00:33;;;;;;;4.30;2.00;;;18.60;99.90;;;;;;5063893;28;20497;-63
2023/07/26 12:03:01;;;;;;;2.03;1.40;;;19.30;99.90;;;;;;5062048;28;20434;-58
2023/07/26 12:05:28;;;;;;;3.13;1.93;;;19.00;99.90;;;;;;5056719;28;20455;-65
2023/07/26 12:07:57;;;;;;;2.37;1.83;;;19.20;99.90;;;;;;5069184;28;20480;-63
2023/07/26 12:10:34;;;;;;;5.50;2.47;;;19.80;99.90;;;;;;5059114;28;20462;-63
2023/07/26 12:13:06;;;;;;;2.83;2.13;;;20.00;99.90;;;;;;5060608;28;20490;-65
2023/07/26 12:15:48;;;;;;;2.30;1.73;;;20.20;99.90;;;;;;5069526;28;20420;-61
2023/07/26 12:18:15;;;;;;;2.50;1.70;;;19.80;99.90;;;;;;5065851;28;20474;-57
2023/07/26 12:20:56;;;;;;;2.03;1.60;;;19.60;99.90;;;;;;5066730;28;20939;-62
2023/07/26 12:23:23;;;;;;;2.90;1.80;;;19.10;99.90;;;;;;5075952;28;20491;-55
2023/07/26 12:25:55;;;;;;;3.10;1.90;;;19.20;99.90;;;;;;5077321;28;20430;-56
2023/07/26 12:28:21;;;;;;;2.87;1.83;;;19.10;99.90;;;;;;5067811;28;20443;-63
2023/07/26 12:30:55;;;;;;;8.50;2.07;;;19.10;99.90;;;;;;5072299;28;20431;-61
2023/07/26 12:33:25;;;;;;;2.70;2.40;;;19.10;99.90;;;;;;5075063;28;20487;-60
2023/07/26 12:35:54;;;;;;;3.70;1.70;;;19.40;99.90;;;;;;5065605;28;20822;-63
2023/07/26 12:38:24;;;;;;;2.80;1.73;;;19.20;99.90;;;;;;5059753;28;20473;-63
2023/07/26 12:40:57;;;;;;;3.57;1.57;;;19.30;99.90;;;;;;5070728;28;20482;-55
2023/07/26 12:43:27;;;;;;;2.27;1.57;;;20.20;99.90;;;;;;5070868;28;20439;-64
2023/07/26 12:45:54;;;;;;;2.20;1.60;;;20.20;99.90;;;;;;5058641;28;20477;-63
2023/07/26 12:48:22;;;;;;;2.53;1.60;;;;;;;;;;5073770;28;20439;-60
2023/07/26 12:50:51;;;;;;;4.27;1.77;;;20.40;99.90;;;;;;5077140;28;20529;-59
2023/07/26 12:53:18;;;;;;;11.83;4.57;;;21.00;99.90;;;;;;5076289;28;20452;-65
2023/07/26 12:55:44;;;;;;;8.30;3.73;;;21.30;99.90;;;;;;5063603;28;20478;-60
2023/07/26 12:58:15;;;;;;;2.90;1.90;;;21.60;99.90;;;;;;5066971;28;20535;-59
2023/07/26 13:00:42;;;;;;;5.50;2.60;;;21.70;99.90;;;;;;5069318;28;20872;-63
2023/07/26 13:03:11;;;;;;;3.53;2.07;;;21.80;99.90;;;;;;5068301;28;20463;-57
2023/07/26 13:05:38;;;;;;;3.80;1.63;;;21.60;99.90;;;;;;5051736;28;20471;-62